Aviation Digital Data Service (ADDS)

Output produced by METARs form (0310 UTC 30 August 2016)
found at http://www.aviationweather.gov/adds/metars/
 
KUNV 300255Z AUTO 00000KT 10SM SCT070 SCT085 21/16 A3020 RMK AO2 T02120158
KUNV 300235Z AUTO 00000KT 10SM SCT065 SCT085 21/16 A3021 RMK AO2 T02050160
KUNV 300215Z AUTO 04005KT 10SM SCT060 SCT075 SCT085 21/16 A3021 RMK AO2 T02120157
KUNV 300155Z AUTO 08004KT 10SM SCT060 SCT075 21/15 A3021 RMK AO2 T02090153
KUNV 300053Z 00000KT 10SM SKC 22/16 A3019
KUNV 292353Z 00000KT 10SM SKC 25/15 A3018
KUNV 292253Z 00000KT 10SM SKC 26/15 A3017
KUNV 292153Z 30006KT 10SM SKC 28/16 A3017
KUNV 292053Z 28005KT 10SM SKC 29/16 A3017
KUNV 291953Z 00000KT 10SM FEW035 28/16 A3019
KUNV 291853Z 00000KT 10SM SCT035 28/16 A3021
KUNV 291753Z 00000KT 10SM SCT035 27/18 A3023
KUNV 291653Z 00000KT 10SM SCT030 SCT038 26/19 A3024
KUNV 291553Z COR 00000KT 10SM SCT025 SCT060 25/20 A3025
KUNV 291453Z VRB03KT 10SM SCT011 SCT024 BKN045 24/20 A3025
KUNV 291353Z 00000KT 6SM BR SCT013 SCT035 BKN050 22/21 A3025
KUNV 291253Z 00000KT 6SM BR SCT018 BKN027 20/20 A3025 RMK VIS E 2SM
KUNV 291235Z 00000KT 6SM BR BKN018 OVC025 20/19 A3025
KUNV 291206Z 00000KT 5SM BR SCT013 BKN030 19/19 A3025 RMK VIS NE 2SM
KUNV 291153Z 00000KT 7SM BCFG SCT013 BKN029 19/19 A3024
KUNV 291053Z 00000KT 8SM BCFG SCT017 BKN025 18/18 A3022
KUNV 291041Z 27003KT 7SM BCFG BKN015 BKN025 18/18 A3021
KUNV 290953Z 00000KT 10SM SCT040 BKN047 18/18 A3021
KUNV 290935Z AUTO 00000KT 5SM BR SCT039 BKN047 BKN110 19/18 A3021 RMK AO2 T01850184
KUNV 290915Z AUTO 27004KT 3SM BR SCT001 BKN045 OVC060 18/18 A3021 RMK AO2 T01840182
KUNV 290855Z AUTO 27004KT 1/4SM FG BKN001 OVC100 18/18 A3020 RMK AO2 T01770176
KUNV 290835Z AUTO 00000KT 1 3/4SM BR VV007 18/18 A3020 RMK AO2 T01830182
KUNV 290815Z AUTO 00000KT 4SM BR CLR 18/18 A3020 RMK AO2 T01830181
KUNV 290755Z AUTO 00000KT 3SM BR CLR 19/18 A3020 RMK AO2 T01850183
KUNV 290735Z AUTO 00000KT 7SM CLR 19/18 A3019 RMK AO2 T01850182
KUNV 290715Z AUTO 36004KT 10SM CLR 19/18 A3018 RMK AO2 T01860183
KUNV 290655Z AUTO 05003KT 10SM CLR 19/19 A3018 RMK AO2 T01870185
KUNV 290635Z AUTO 00000KT 7SM SCT120 19/19 A3018 RMK AO2 T01870185
KUNV 290615Z AUTO 06003KT 10SM SCT100 BKN120 19/19 A3019 RMK AO2 T01920188
KUNV 290555Z AUTO 00000KT 10SM RA SCT100 BKN120 19/19 A3019 RMK AO2 T01900186 10203 20190
KUNV 290535Z AUTO 00000KT 10SM SCT090 SCT110 19/19 A3018 RMK AO2 T01900185
KUNV 290515Z AUTO 00000KT 10SM -RA SCT085 BKN110 20/19 A3020 RMK AO2 T01960186
KUNV 290455Z AUTO 00000KT 10SM BKN120 19/19 A3020 RMK AO2 T01930185
KUNV 290435Z AUTO 22005KT 10SM -DZ SCT120 20/19 A3019 RMK AO2 T01960185
KUNV 290415Z AUTO 23011KT 10SM SCT050 SCT070 SCT110 20/19 A3020 RMK AO2 LTG DSNT W T01970185
KUNV 290355Z AUTO 22008KT 10SM -RA SCT050 SCT060 BKN070 20/19 A3021 RMK AO2 T01970187 403030187
KUNV 290335Z AUTO 23009KT 10SM -RA SCT060 OVC100 20/19 A3022 RMK AO2 LTG DSNT W P0003 T01970188
KUNV 290315Z AUTO 22007KT 10SM -RA BKN060 OVC090 20/19 A3023 RMK AO2 P0002 T01970190
KUNV 290255Z AUTO 25010KT 10SM RA BKN060 BKN100 20/19 A3023 RMK AO2 T02000188
KUNV 290235Z AUTO 22007KT 10SM -RA SCT060 BKN070 BKN080 20/19 A3023 RMK AO2 LTG DSNT SW P0003 T02020191
KUNV 290215Z AUTO 21007KT 10SM -RA SCT050 SCT070 BKN110 20/20 A3022 RMK AO2 LTG DSNT SW AND W P0001 T02020195
KUNV 290155Z AUTO 20006KT 10SM -RA SCT050 SCT070 BKN095 20/20 A3023 RMK AO2 LTG DSNT SW AND W T02000195
KUNV 290053Z 00000KT 10SM SCT050 SCT090 19/19 A3023
KUNV 282353Z 00000KT 10SM VCTS SCT070 OVC095 20/19 A3021 RMK LTG DSNT SW-N
KUNV 282253Z 00000KT 10SM SCT031 SCT050 BKN070 21/19 A3019 RMK LTG DSNT W-N
KUNV 282153Z 24006KT 10SM SCT075 BKN100 BKN120 20/19 A3018 RMK LTG DSNT SW AND W
KUNV 282137Z 22007KT 10SM SCT050 OVC110 20/19 A3021
KUNV 282105Z 06005KT 5SM RA SCT010 BKN025 OVC048 20/18 A3025
KUNV 282103Z COR 06005KT 4SM RA SCT010 BKN016 OVC030 20/18 A3025 RMK TSE2059
KUNV 282053Z 08010KT 2SM +TSRA OVC014 20/18 A3024
KUNV 282040Z 33005KT 2SM +TSRA SCT011 BKN044 OVC050 23/18 A3025
KUNV 282010Z 33015G30KT 10SM VCTS SCT045 SCT070 30/20 A3022 RMK TSB 2010 OCNL LTGCG VC
KUNV 281953Z 17005KT 10SM FEW070 30/21 A3021 RMK LTG DSNT W-N
KUNV 281853Z 18008KT 10SM FEW060 30/21 A3021
KUNV 281753Z 19008KT 10SM FEW045 29/21 A3024
KUNV 281653Z 20008KT 10SM SKC 28/21 A3025
KUNV 281553Z 20008KT 10SM SKC 27/20 A3026